Time;durP1;ratioP1;P1;durP2;ratioP2;P2;SDS_P1;SDS_P2;PMS_P1;PMS_P2;Temp;Humidity;BMP_temperature;BMP_pressure;BME280_temperature;BME280_humidity;BME280_pressure;Samples;Min_cycle;Max_cycle;Signal;HPM_P1;HPM_P2
2021/11/05 00:01:13;;;;;;;5.95;2.08;;;;;;;15.37;70.47;99046.59;1814984;79;21003;-76
2021/11/05 00:03:40;;;;;;;6.58;2.20;;;;;;;15.28;71.00;99046.56;1788514;79;20979;-77
2021/11/05 00:06:06;;;;;;;5.25;2.17;;;;;;;15.24;70.40;99062.00;1802162;79;20979;-77
2021/11/05 00:08:33;;;;;;;5.12;2.20;;;;;;;15.18;70.36;99055.29;1790279;79;21515;-76
2021/11/05 00:10:59;;;;;;;3.83;1.85;;;;;;;15.14;70.87;99052.42;1814684;79;21094;-78
2021/11/05 00:13:26;;;;;;;5.80;2.12;;;;;;;15.10;69.80;99071.80;1800076;79;21106;-77
2021/11/05 00:15:52;;;;;;;3.67;1.82;;;;;;;15.05;70.81;99063.29;1811483;79;21004;-76
2021/11/05 00:18:19;;;;;;;4.67;2.08;;;;;;;15.04;71.61;99061.57;1779563;79;21490;-78
2021/11/05 00:20:45;;;;;;;3.80;1.77;;;;;;;15.03;71.70;99053.34;1801295;79;21448;-77
2021/11/05 00:23:14;;;;;;;3.95;2.15;;;;;;;15.01;71.60;99049.94;1804355;79;21047;-77
2021/11/05 00:25:41;;;;;;;7.17;2.47;;;;;;;15.00;71.31;99054.77;1801354;79;20956;-77
2021/11/05 00:28:07;;;;;;;5.55;2.08;;;;;;;14.97;71.69;99062.78;1806529;79;21019;-77
2021/11/05 00:30:33;;;;;;;5.97;2.52;;;;;;;14.94;72.56;99069.44;1801288;79;20949;-77
2021/11/05 00:33:00;;;;;;;5.05;2.15;;;;;;;14.92;72.31;99077.35;1809982;79;20975;-76
2021/11/05 00:35:27;;;;;;;7.10;2.30;;;;;;;14.89;72.04;99077.03;1788195;79;21043;-76
2021/11/05 00:37:53;;;;;;;6.40;2.00;;;;;;;14.86;74.03;99066.72;1819273;79;20976;-76
2021/11/05 00:40:25;;;;;;;5.35;2.20;;;;;;;14.85;73.08;99062.38;1785189;79;21654;-76
2021/11/05 00:42:51;;;;;;;3.35;1.65;;;;;;;14.85;73.00;99053.22;1807861;79;20996;-76
2021/11/05 00:45:18;;;;;;;4.72;2.05;;;;;;;14.88;72.93;99030.86;1783227;79;21063;-77
2021/11/05 00:47:44;;;;;;;7.05;2.50;;;;;;;14.88;72.71;99015.58;1794524;79;21022;-77
2021/11/05 00:50:10;;;;;;;5.50;2.20;;;;;;;14.89;72.57;99032.53;1781441;79;21011;-77
2021/11/05 00:52:37;;;;;;;6.55;2.62;;;;;;;14.85;72.37;99041.91;1795776;79;20995;-77
2021/11/05 00:55:05;;;;;;;4.45;2.45;;;;;;;14.78;72.41;99041.33;1784609;79;21047;-75
2021/11/05 00:57:32;;;;;;;5.45;2.83;;;;;;;14.76;72.94;99040.98;1775541;80;22177;-77
2021/11/05 00:59:59;;;;;;;4.22;2.30;;;;;;;14.70;72.16;99044.28;1765608;80;21067;-77
2021/11/05 01:02:26;;;;;;;7.72;2.47;;;;;;;14.66;72.15;99053.61;1744936;80;21036;-76
2021/11/05 01:04:53;;;;;;;4.17;2.27;;;;;;;14.63;72.62;99038.06;1756127;80;21007;-77
2021/11/05 01:07:19;;;;;;;8.25;2.80;;;;;;;14.60;72.87;99039.48;1749583;80;21027;-77
2021/11/05 01:09:46;;;;;;;6.28;2.75;;;;;;;14.57;72.90;99040.47;1779299;80;21015;-76
2021/11/05 01:12:12;;;;;;;5.22;2.45;;;;;;;14.50;73.32;99052.94;1761287;80;21027;-76
2021/11/05 01:14:39;;;;;;;8.78;2.72;;;;;;;14.42;75.42;99068.07;1738794;80;21011;-77
2021/11/05 01:17:06;;;;;;;5.97;2.52;;;;;;;14.39;73.61;99089.60;1764667;80;20964;-76
2021/11/05 01:19:32;;;;;;;5.60;2.65;;;;;;;14.33;75.84;99111.62;1788126;80;21001;-76
2021/11/05 01:21:59;;;;;;;3.92;1.95;;;;;;;14.33;75.54;99134.69;1785828;79;21494;-77
2021/11/05 01:24:25;;;;;;;4.55;2.02;;;;;;;14.33;75.52;99157.39;1801436;79;20970;-77
2021/11/05 01:26:53;;;;;;;4.83;2.33;;;;;;;14.31;75.91;99153.52;1783920;79;21370;-77
2021/11/05 01:29:19;;;;;;;9.88;2.45;;;;;;;14.27;75.85;99115.79;1785572;80;21037;-77
2021/11/05 01:31:46;;;;;;;4.87;1.77;;;;;;;14.28;75.27;99084.79;1789626;79;21507;-77
2021/11/05 01:34:13;;;;;;;5.25;1.90;;;;;;;14.27;75.18;99080.02;1786100;80;21905;-77
2021/11/05 01:36:40;;;;;;;5.10;2.05;;;;;;;14.27;75.91;99080.48;1795272;79;21531;-77
2021/11/05 01:39:07;;;;;;;6.08;2.42;;;;;;;14.28;75.25;99076.52;1787802;80;21467;-77
2021/11/05 01:41:40;;;;;;;5.65;2.20;;;;;;;14.31;75.43;99065.91;1795075;79;21066;-76
2021/11/05 01:44:07;;;;;;;5.10;2.10;;;;;;;14.34;75.02;99067.54;1787701;79;22414;-77
2021/11/05 01:46:40;;;;;;;3.77;2.00;;;;;;;14.34;75.50;99054.47;1815200;79;20992;-77
2021/11/05 01:49:02;;;;;;;4.47;2.00;;;;;;;14.36;75.30;99061.79;1789008;79;21064;-77
2021/11/05 01:51:29;;;;;;;4.10;1.90;;;;;;;14.37;75.12;99061.35;1816095;79;21052;-77
2021/11/05 01:53:55;;;;;;;6.25;2.05;;;;;;;14.39;74.79;99065.59;1789994;79;21114;-77
2021/11/05 01:56:22;;;;;;;7.05;2.20;;;;;;;14.39;75.29;99055.14;1807063;79;21068;-77
2021/11/05 01:58:48;;;;;;;5.15;2.12;;;;;;;14.39;74.91;99049.91;1788046;79;20986;-77
2021/11/05 02:01:15;;;;;;;6.30;2.35;;;;;;;14.40;74.67;99050.28;1806006;79;21416;-76
2021/11/05 02:03:41;;;;;;;7.00;2.10;;;;;;;14.38;75.15;99049.50;1793738;79;21463;-77
2021/11/05 02:06:08;;;;;;;4.87;2.37;;;;;;;14.37;75.21;99049.59;1804740;79;20977;-76
2021/11/05 02:08:37;;;;;;;6.55;2.40;;;;;;;14.39;75.18;99059.53;1794815;79;21030;-74
2021/11/05 02:11:05;;;;;;;7.15;2.72;;;;;;;14.35;75.59;99062.72;1778839;79;21000;-77
2021/11/05 02:13:34;;;;;;;4.85;2.60;;;;;;;14.34;75.19;99072.77;1799778;79;21019;-78
2021/11/05 02:16:01;;;;;;;5.45;2.33;;;;;;;14.30;74.86;99095.61;1786680;79;21008;-77
2021/11/05 02:18:29;;;;;;;4.62;1.80;;;;;;;14.24;75.08;99110.20;1771904;79;20987;-77
2021/11/05 02:20:56;;;;;;;5.10;2.00;;;;;;;14.21;74.14;99146.11;1785202;79;21006;-76
2021/11/05 02:23:25;;;;;;;6.12;2.52;;;;;;;14.14;74.92;99174.23;1808663;79;20987;-77
2021/11/05 02:25:51;;;;;;;5.33;2.20;;;;;;;14.05;78.30;99199.44;1795232;79;20999;-78
2021/11/05 02:28:18;;;;;;;7.08;2.35;;;;;;;13.97;79.97;99194.48;1814650;79;21003;-78
2021/11/05 02:30:44;;;;;;;10.00;2.22;;;;;;;13.91;79.25;99195.56;1798702;79;21011;-77
2021/11/05 02:33:11;;;;;;;5.75;1.90;;;;;;;13.87;78.17;99202.28;1813216;79;21027;-78
2021/11/05 02:35:37;;;;;;;4.78;2.08;;;;;;;13.86;78.04;99206.63;1790799;79;21524;-76
2021/11/05 02:38:04;;;;;;;4.55;2.40;;;;;;;13.81;80.24;99182.91;1786552;80;21050;-77
2021/11/05 02:40:31;;;;;;;4.37;2.10;;;;;;;13.79;79.54;99152.06;1789370;79;21023;-78
2021/11/05 02:42:58;;;;;;;3.45;1.90;;;;;;;13.78;79.92;99125.06;1802977;79;21388;-78
2021/11/05 02:45:24;;;;;;;5.40;1.90;;;;;;;13.80;78.86;99116.70;1803435;79;20972;-78
2021/11/05 02:47:51;;;;;;;4.78;1.95;;;;;;;13.78;79.10;99097.62;1802756;79;20992;-79
2021/11/05 02:50:19;;;;;;;4.17;2.10;;;;;;;13.76;79.30;99094.69;1800732;79;21963;-78
2021/11/05 02:52:45;;;;;;;8.73;2.20;;;;;;;13.73;79.34;99108.27;1785323;79;20976;-78
2021/11/05 02:55:14;;;;;;;4.25;2.20;;;;;;;13.73;79.44;99111.34;1807748;79;22187;-78
2021/11/05 02:57:41;;;;;;;4.67;2.30;;;;;;;13.73;79.40;99106.11;1771177;79;21332;-75
2021/11/05 03:00:10;;;;;;;7.33;2.10;;;;;;;13.73;80.07;99095.20;1763774;80;21015;-78
2021/11/05 03:02:38;;;;;;;4.55;2.20;;;;;;;13.72;79.04;99096.09;1770083;80;21043;-78
2021/11/05 03:05:06;;;;;;;4.72;2.20;;;;;;;13.75;80.04;99085.13;1763420;80;21035;-79
2021/11/05 03:07:32;;;;;;;5.12;2.05;;;;;;;13.74;80.08;99082.98;1780589;80;20960;-78
2021/11/05 03:09:59;;;;;;;7.00;2.17;;;;;;;13.76;81.08;99086.84;1763649;80;21019;-79
2021/11/05 03:12:25;;;;;;;4.75;2.50;;;;;;;13.72;79.62;99085.64;1776093;80;20971;-78
2021/11/05 03:14:52;;;;;;;9.85;4.80;;;;;;;13.65;80.05;99092.48;1768101;77;20975;-78
2021/11/05 03:17:18;;;;;;;7.50;3.60;;;;;;;13.58;81.30;99087.09;1769606;77;20955;-78
2021/11/05 03:19:45;;;;;;;6.83;3.60;;;;;;;13.51;79.66;99077.34;1797230;79;20967;-78
2021/11/05 03:22:12;;;;;;;6.47;3.17;;;;;;;13.43;80.67;99069.78;1797230;79;21035;-77
2021/11/05 03:24:38;;;;;;;5.85;2.98;;;;;;;13.39;80.85;99076.45;1799397;79;21015;-78
2021/11/05 03:27:05;;;;;;;5.72;2.55;;;;;;;13.35;81.07;99080.97;1809543;79;20971;-77
2021/11/05 03:29:32;;;;;;;6.15;2.77;;;;;;;13.33;80.27;99093.23;1790623;79;21035;-77
2021/11/05 03:31:58;;;;;;;5.78;2.30;;;;;;;13.30;80.99;99088.95;1814026;79;21416;-77
2021/11/05 03:34:25;;;;;;;6.12;2.40;;;;;;;13.28;81.94;99105.09;1799858;79;21059;-77
2021/11/05 03:36:51;;;;;;;5.08;2.40;;;;;;;13.24;82.61;99094.36;1810923;79;21032;-77
2021/11/05 03:39:18;;;;;;;4.85;1.92;;;;;;;13.18;80.71;99090.67;1788140;78;20972;-77
2021/11/05 03:41:45;;;;;;;4.78;2.45;;;;;;;13.10;82.48;99079.19;1784200;80;20959;-77
2021/11/05 03:44:11;;;;;;;5.05;2.70;;;;;;;13.07;84.05;99062.78;1799403;80;21002;-78
2021/11/05 03:46:38;;;;;;;10.23;3.27;;;;;;;13.06;81.92;99053.27;1809524;78;21061;-78
2021/11/05 03:49:05;;;;;;;4.87;2.50;;;;;;;13.05;81.59;99053.73;1810391;79;21518;-78
2021/11/05 03:51:32;;;;;;;4.22;2.35;;;;;;;13.06;82.27;99071.53;1810517;79;20990;-77
2021/11/05 03:53:59;;;;;;;9.70;3.40;;;;;;;13.05;81.94;99078.95;1810373;79;21146;-78
2021/11/05 03:56:25;;;;;;;5.55;2.70;;;;;;;13.07;81.49;99094.98;1810554;79;21554;-78
2021/11/05 03:58:52;;;;;;;5.78;2.70;;;;;;;13.05;81.25;99086.78;1810662;79;20959;-78
2021/11/05 04:01:20;;;;;;;5.45;2.60;;;;;;;13.06;80.81;99091.11;1810474;79;20979;-78
2021/11/05 04:03:50;;;;;;;12.50;2.83;;;;;;;13.02;81.30;99076.47;1810419;79;21120;-78
2021/11/05 04:06:20;;;;;;;6.28;2.20;;;;;;;12.99;81.69;99070.03;1810511;79;21065;-78
2021/11/05 04:08:47;;;;;;;4.45;2.75;;;;;;;12.93;81.31;99071.97;1810497;79;21021;-75
2021/11/05 04:11:14;;;;;;;4.08;2.30;;;;;;;12.86;82.47;99078.30;1810380;79;21029;-78
2021/11/05 04:13:41;;;;;;;5.80;2.92;;;;;;;12.83;81.57;99081.03;1810519;79;21506;-78
2021/11/05 04:16:07;;;;;;;6.47;3.05;;;;;;;12.81;81.46;99088.06;1810390;79;21490;-75
2021/11/05 04:18:36;;;;;;;10.15;2.80;;;;;;;12.84;82.12;99085.33;1810437;79;21005;-75
2021/11/05 04:21:04;;;;;;;8.93;3.50;;;;;;;12.85;81.89;99074.00;1810507;79;21490;-75
2021/11/05 04:23:31;;;;;;;5.05;3.10;;;;;;;12.79;81.58;99068.97;1810386;79;21525;-77
2021/11/05 04:25:58;;;;;;;6.85;2.70;;;;;;;12.68;81.92;99063.29;1810498;79;21498;-78
2021/11/05 04:28:24;;;;;;;7.50;3.95;;;;;;;12.68;82.38;99058.07;1795544;78;22180;-77
2021/11/05 04:30:51;;;;;;;5.25;3.00;;;;;;;12.65;82.20;99051.64;1770298;81;21014;-77
2021/11/05 04:33:18;;;;;;;7.35;3.08;;;;;;;12.62;83.46;99057.82;1770348;81;20991;-78
2021/11/05 04:35:45;;;;;;;5.67;3.08;;;;;;;12.56;82.06;99058.49;1770137;81;21012;-78
2021/11/05 04:38:12;;;;;;;10.23;3.98;;;;;;;12.50;81.43;99062.16;1770256;81;20994;-76
2021/11/05 04:40:39;;;;;;;13.55;4.08;;;;;;;12.46;82.18;99061.40;1770227;81;21042;-79
2021/11/05 04:43:06;;;;;;;6.08;3.35;;;;;;;12.42;82.04;99076.74;1769745;81;20995;-77
2021/11/05 04:45:34;;;;;;;6.90;3.40;;;;;;;12.41;82.89;99084.15;1767013;80;21038;-77
2021/11/05 04:48:00;;;;;;;8.45;3.60;;;;;;;12.38;84.47;99080.36;1761892;81;21058;-79
2021/11/05 04:50:27;;;;;;;13.13;4.58;;;;;;;12.36;83.91;99080.02;1762173;81;21064;-76
2021/11/05 04:52:54;;;;;;;14.07;6.03;;;;;;;12.36;84.72;99086.07;1762030;81;20983;-75
2021/11/05 04:55:21;;;;;;;11.85;5.83;;;;;;;12.37;85.10;99082.55;1762077;81;21027;-77
2021/11/05 04:57:50;;;;;;;10.70;5.50;;;;;;;12.37;84.51;99092.13;1762088;81;21049;-76
2021/11/05 05:00:21;;;;;;;12.60;5.92;;;;;;;12.37;83.73;99096.88;1761896;81;21567;-76
2021/11/05 05:02:48;;;;;;;12.60;6.03;;;;;;;12.40;84.72;99103.31;1762126;81;21054;-78
2021/11/05 05:05:16;;;;;;;9.60;5.45;;;;;;;12.42;84.94;99094.99;1761916;81;21555;-77
2021/11/05 05:07:43;;;;;;;12.53;6.20;;;;;;;12.45;84.98;99110.52;1765779;80;21519;-78
2021/11/05 05:10:10;;;;;;;12.53;5.62;;;;;;;12.47;84.71;99120.48;1763736;81;21547;-75
2021/11/05 05:12:38;;;;;;;12.37;5.90;;;;;;;12.48;85.64;99119.56;1763792;81;21078;-76
2021/11/05 05:15:07;;;;;;;11.25;5.08;;;;;;;12.51;84.01;99128.61;1763762;81;21618;-78
2021/11/05 05:17:34;;;;;;;9.90;5.40;;;;;;;12.54;85.13;99131.09;1763780;81;20991;-78
2021/11/05 05:20:03;;;;;;;10.00;6.28;;;;;;;12.60;84.90;99139.17;1763720;81;21042;-78
2021/11/05 05:22:29;;;;;;;11.38;5.22;;;;;;;12.63;85.17;99131.69;1763807;81;21012;-78
2021/11/05 05:24:56;;;;;;;13.72;6.08;;;;;;;12.66;84.62;99128.54;1763777;81;20980;-78
2021/11/05 05:27:22;;;;;;;15.13;6.72;;;;;;;12.67;84.49;99138.52;1752850;80;21506;-78
2021/11/05 05:29:50;;;;;;;14.28;7.17;;;;;;;12.71;86.09;99144.91;1749308;80;21027;-78
2021/11/05 05:32:16;;;;;;;16.95;7.28;;;;;;;12.76;85.08;99151.72;1753660;80;21019;-78
2021/11/05 05:34:43;;;;;;;14.28;5.58;;;;;;;12.84;85.09;99155.77;1765367;80;21003;-78
2021/11/05 05:37:09;;;;;;;14.33;5.67;;;;;;;12.86;84.57;99152.66;1755728;80;21066;-79
2021/11/05 05:39:36;;;;;;;10.55;6.08;;;;;;;12.90;84.13;99163.39;1758564;80;20952;-79
2021/11/05 05:42:02;;;;;;;18.50;9.40;;;;;;;12.96;84.34;99165.41;1761663;80;20992;-79
2021/11/05 05:44:29;;;;;;;24.57;14.15;;;;;;;12.97;84.77;99171.89;1747194;80;21043;-78
2021/11/05 05:46:56;;;;;;;21.77;14.05;;;;;;;12.98;84.45;99178.80;1758826;78;21002;-79
2021/11/05 05:49:22;;;;;;;11.53;7.30;;;;;;;12.96;83.89;99176.69;1755273;81;21547;-78
2021/11/05 05:51:49;;;;;;;9.40;5.40;;;;;;;12.91;83.30;99177.28;1752119;81;20974;-77
2021/11/05 05:54:15;;;;;;;10.23;5.08;;;;;;;12.84;83.39;99190.99;1753361;78;20992;-79
2021/11/05 05:56:42;;;;;;;11.35;4.75;;;;;;;12.80;83.51;99189.39;1748752;81;21384;-78
2021/11/05 05:59:08;;;;;;;13.25;5.05;;;;;;;12.81;83.63;99195.02;1754473;78;20994;-79
2021/11/05 06:01:35;;;;;;;11.30;4.90;;;;;;;12.80;84.03;99199.83;1747588;78;21032;-79
2021/11/05 06:04:02;;;;;;;15.08;7.17;;;;;;;12.78;84.10;99191.20;1751739;78;21450;-79
2021/11/05 06:06:29;;;;;;;17.15;8.98;;;;;;;12.79;84.01;99181.60;1770948;78;21031;-78
2021/11/05 06:08:57;;;;;;;18.00;8.05;;;;;;;12.81;84.24;99192.41;1775195;78;21073;-79
2021/11/05 06:11:25;;;;;;;13.50;6.87;;;;;;;12.83;82.89;99184.09;1766295;78;21004;-76
2021/11/05 06:13:52;;;;;;;13.95;7.35;;;;;;;12.78;82.60;99182.06;1754889;81;21489;-75
2021/11/05 06:16:19;;;;;;;17.82;9.98;;;;;;;12.80;82.91;99189.39;1758662;78;21013;-75
2021/11/05 06:18:46;;;;;;;18.05;8.68;;;;;;;12.83;83.55;99177.99;1769056;81;21020;-78
2021/11/05 06:21:13;;;;;;;19.15;8.40;;;;;;;12.86;83.55;99181.81;1755587;81;21040;-79
2021/11/05 06:23:39;;;;;;;15.88;8.30;;;;;;;12.92;83.34;99186.37;1764901;78;21009;-78
2021/11/05 06:26:06;;;;;;;16.73;8.05;;;;;;;12.96;82.77;99177.15;1764360;81;20946;-76
2021/11/05 06:28:33;;;;;;;17.15;8.28;;;;;;;12.95;83.05;99178.88;1772291;78;21061;-76
2021/11/05 06:31:00;;;;;;;15.30;7.35;;;;;;;13.02;83.49;99178.25;1754163;81;21305;-77
2021/11/05 06:33:26;;;;;;;11.30;6.95;;;;;;;13.09;83.30;99174.08;1752047;78;21109;-78
2021/11/05 06:35:52;;;;;;;12.37;7.12;;;;;;;13.17;83.33;99177.73;1756103;78;20997;-77
2021/11/05 06:38:19;;;;;;;13.83;7.25;;;;;;;13.24;83.89;99201.40;1748084;81;21524;-77
2021/11/05 06:40:45;;;;;;;14.95;8.40;;;;;;;13.30;83.46;99201.67;1765495;78;20970;-78
2021/11/05 06:43:12;;;;;;;16.60;7.37;;;;;;;13.36;83.21;99190.17;1767918;81;21287;-77
2021/11/05 06:45:39;;;;;;;12.78;8.20;;;;;;;13.43;83.75;99182.08;1774664;78;21044;-78
2021/11/05 06:48:05;;;;;;;15.53;8.25;;;;;;;13.50;83.38;99181.39;1771399;78;21583;-77
2021/11/05 06:50:32;;;;;;;13.35;8.10;;;;;;;13.57;83.34;99190.73;1790001;79;21481;-79
2021/11/05 06:52:58;;;;;;;16.35;9.18;;;;;;;13.67;83.47;99183.41;1796316;79;21033;-78
2021/11/05 06:55:25;;;;;;;14.90;9.25;;;;;;;13.77;83.46;99174.75;1795033;79;20943;-78
2021/11/05 06:57:51;;;;;;;13.85;8.18;;;;;;;13.87;83.44;99183.98;1776223;79;21005;-78
2021/11/05 07:00:18;;;;;;;17.95;8.63;;;;;;;13.95;82.91;99180.63;1790323;79;20970;-78
2021/11/05 07:02:44;;;;;;;13.68;8.60;;;;;;;14.01;81.75;99182.16;1786161;79;21117;-78
2021/11/05 07:05:14;;;;;;;15.18;8.38;;;;;;;14.02;82.15;99186.00;1785559;79;20984;-78
2021/11/05 07:07:42;;;;;;;21.02;8.53;;;;;;;14.04;82.66;99190.72;1774753;79;21024;-76
2021/11/05 07:10:11;;;;;;;17.02;8.68;;;;;;;14.07;82.53;99180.16;1782547;78;21094;-78
2021/11/05 07:12:38;;;;;;;16.70;8.08;;;;;;;14.10;81.39;99158.27;1780253;79;20980;-76
2021/11/05 07:15:08;;;;;;;13.55;8.03;;;;;;;14.09;81.15;99165.27;1773958;80;21593;-76
2021/11/05 07:17:34;;;;;;;19.55;8.45;;;;;;;14.11;81.61;99159.52;1778577;80;21022;-78
2021/11/05 07:20:01;;;;;;;14.70;7.35;;;;;;;14.18;82.31;99152.75;1799856;79;21024;-78
2021/11/05 07:22:27;;;;;;;13.60;6.58;;;;;;;14.23;82.69;99147.73;1799758;78;20984;-77
2021/11/05 07:24:54;;;;;;;14.75;5.95;;;;;;;14.29;81.94;99155.80;1773964;79;21013;-77
2021/11/05 07:27:20;;;;;;;9.25;4.70;;;;;;;14.37;82.29;99166.81;1790699;79;21022;-78
2021/11/05 07:29:48;;;;;;;7.28;4.03;;;;;;;14.44;82.11;99174.82;1791254;79;21014;-78
2021/11/05 07:32:15;;;;;;;9.28;4.00;;;;;;;14.52;81.53;99166.21;1797976;75;21001;-79
2021/11/05 07:34:42;;;;;;;7.90;3.83;;;;;;;14.58;81.73;99162.97;1796484;78;21058;-77
2021/11/05 07:37:18;;;;;;;8.38;3.80;;;;;;;14.68;81.26;99164.30;1801375;78;20994;-78
2021/11/05 07:39:44;;;;;;;7.72;3.30;;;;;;;14.72;81.16;99165.86;1797332;78;21525;-77
2021/11/05 07:42:12;;;;;;;7.85;3.10;;;;;;;14.80;81.46;99177.33;1802595;78;20998;-76
2021/11/05 07:44:39;;;;;;;5.85;3.17;;;;;;;14.91;81.13;99172.52;1795035;78;21598;-78
2021/11/05 07:47:07;;;;;;;7.05;3.62;;;;;;;15.01;80.90;99175.61;1793863;78;21008;-76
2021/11/05 07:49:35;;;;;;;8.33;3.83;;;;;;;15.03;81.00;99173.77;1790865;78;20976;-75
2021/11/05 07:52:03;;;;;;;8.08;3.55;;;;;;;15.10;80.90;99159.05;1794342;78;21019;-77
2021/11/05 07:54:30;;;;;;;9.95;3.92;;;;;;;15.23;80.76;99138.88;1795919;78;20997;-77
2021/11/05 07:56:56;;;;;;;13.65;4.30;;;;;;;15.33;80.61;99138.86;1792467;78;21054;-77
2021/11/05 07:59:23;;;;;;;6.72;3.65;;;;;;;15.35;80.28;99131.79;1790170;78;20986;-77
2021/11/05 08:01:49;;;;;;;6.85;3.98;;;;;;;15.37;80.39;99139.59;1754665;80;21585;-76
2021/11/05 08:04:16;;;;;;;8.48;4.30;;;;;;;15.38;80.19;99138.22;1785950;78;21027;-77
2021/11/05 08:06:42;;;;;;;9.00;4.33;;;;;;;15.44;80.10;99144.96;1755474;81;20983;-76
2021/11/05 08:09:09;;;;;;;7.92;4.40;;;;;;;15.42;79.78;99126.68;1767227;80;21043;-77
2021/11/05 08:11:35;;;;;;;10.95;4.97;;;;;;;15.44;79.99;99128.77;1771203;80;21042;-77
2021/11/05 08:14:03;;;;;;;9.43;4.80;;;;;;;15.49;79.78;99124.16;1772394;80;20988;-77
2021/11/05 08:16:29;;;;;;;10.30;5.75;;;;;;;15.56;79.66;99125.20;1775282;80;21358;-74
2021/11/05 08:18:56;;;;;;;12.58;5.55;;;;;;;15.61;79.65;99119.30;1778687;80;21507;-75
2021/11/05 08:21:23;;;;;;;12.68;4.62;;;;;;;15.71;79.71;99105.69;1766303;80;21013;-78
2021/11/05 08:23:50;;;;;;;10.93;5.10;;;;;;;15.77;79.64;99120.33;1759451;80;21046;-77
2021/11/05 08:26:17;;;;;;;10.80;5.05;;;;;;;15.83;79.31;99119.20;1765420;80;21012;-77
2021/11/05 08:28:44;;;;;;;11.33;5.80;;;;;;;15.95;79.26;99122.55;1768233;80;21058;-76
2021/11/05 08:31:15;;;;;;;10.28;4.78;;;;;;;16.08;79.27;99113.67;1776839;79;21666;-78
2021/11/05 08:33:43;;;;;;;9.28;4.50;;;;;;;16.22;79.30;99128.75;1755464;80;21070;-79
2021/11/05 08:36:15;;;;;;;7.85;4.35;;;;;;;16.38;78.92;99117.90;1787431;78;21594;-78
2021/11/05 08:38:44;;;;;;;9.28;3.50;;;;;;;16.55;78.73;99117.53;1783266;78;21035;-79
2021/11/05 08:41:16;;;;;;;16.15;8.20;;;;;;;16.71;78.46;99113.21;1790468;78;21522;-73
2021/11/05 08:43:40;;;;;;;9.60;4.92;;;;;;;16.78;77.80;99113.30;1794694;78;21013;-76
2021/11/05 08:46:07;;;;;;;5.45;3.08;;;;;;;16.85;77.12;99114.73;1802394;78;21034;-76
2021/11/05 08:48:34;;;;;;;4.35;2.27;;;;;;;16.97;76.71;99100.58;1780027;79;20975;-76
2021/11/05 08:51:06;;;;;;;4.60;2.50;;;;;;;17.01;76.07;99091.61;1760058;78;21012;-76
2021/11/05 08:53:32;;;;;;;7.25;2.85;;;;;;;17.04;76.21;99099.34;1777784;80;20983;-76
2021/11/05 08:55:59;;;;;;;4.58;2.75;;;;;;;17.13;76.31;99100.64;1762294;78;21020;-76
2021/11/05 08:58:26;;;;;;;9.80;2.58;;;;;;;17.24;75.80;99104.88;1789279;78;21480;-75
2021/11/05 09:00:52;;;;;;;7.67;2.80;;;;;;;17.32;75.84;99109.73;1777988;78;20987;-77
2021/11/05 09:03:19;;;;;;;6.80;2.60;;;;;;;17.41;75.52;99105.31;1768363;78;21011;-76
2021/11/05 09:05:45;;;;;;;4.17;2.30;;;;;;;17.45;75.33;99104.22;1756151;78;21001;-76
2021/11/05 09:08:12;;;;;;;5.62;2.40;;;;;;;17.48;74.83;99097.47;1779590;78;21046;-76
2021/11/05 09:10:38;;;;;;;7.83;2.35;;;;;;;17.53;75.20;99112.98;1779863;78;21002;-77
2021/11/05 09:13:05;;;;;;;5.12;2.70;;;;;;;17.63;75.02;99112.43;1775685;78;20983;-77
2021/11/05 09:15:32;;;;;;;5.60;2.45;;;;;;;17.72;74.87;99099.24;1782867;80;21011;-77
2021/11/05 09:18:02;;;;;;;6.85;3.08;;;;;;;17.74;73.31;99107.05;1761865;80;21031;-76
2021/11/05 09:20:30;;;;;;;6.62;2.85;;;;;;;17.79;74.42;99100.62;1764351;80;21554;-74
2021/11/05 09:22:57;;;;;;;12.82;6.25;;;;;;;17.89;73.70;99099.68;1758154;78;21061;-76
2021/11/05 09:25:23;;;;;;;6.53;3.17;;;;;;;17.87;73.55;99101.55;1786294;78;21679;-76
2021/11/05 09:27:51;;;;;;;5.55;2.70;;;;;;;17.97;73.02;99104.52;1776681;78;21039;-76
2021/11/05 09:30:22;;;;;;;6.78;3.20;;;;;;;18.02;72.56;99099.84;1738943;80;22543;-77
2021/11/05 09:32:48;;;;;;;11.10;3.47;;;;;;;18.04;72.72;99104.06;1778085;78;21059;-77
2021/11/05 09:35:15;;;;;;;8.43;3.87;;;;;;;18.13;72.55;99094.84;1763546;78;21594;-77
2021/11/05 09:37:44;;;;;;;9.35;4.10;;;;;;;18.22;72.50;99097.41;1793323;78;20995;-76
2021/11/05 09:40:15;;;;;;;10.32;4.65;;;;;;;18.29;71.83;99091.71;1780075;79;21020;-76
2021/11/05 09:42:44;;;;;;;8.10;4.30;;;;;;;18.34;71.84;99094.07;1784515;79;21017;-76
2021/11/05 09:45:11;;;;;;;8.08;3.10;;;;;;;18.38;71.43;99096.94;1782849;78;21511;-76
2021/11/05 09:47:40;;;;;;;6.85;3.60;;;;;;;18.43;70.95;99101.92;1782957;80;21489;-76
2021/11/05 09:50:09;;;;;;;6.65;3.45;;;;;;;18.49;71.08;99098.47;1795433;78;20998;-74
2021/11/05 09:52:38;;;;;;;5.78;3.42;;;;;;;18.56;71.10;99100.73;1797957;79;20986;-76
2021/11/05 09:55:07;;;;;;;7.12;3.47;;;;;;;18.64;70.95;99099.83;1781708;78;21438;-77
2021/11/05 09:57:34;;;;;;;6.85;3.15;;;;;;;18.72;69.60;99091.03;1800274;79;21026;-77
2021/11/05 10:00:01;;;;;;;6.33;3.60;;;;;;;18.89;70.30;99092.69;1791605;78;21022;-76
2021/11/05 10:02:28;;;;;;;10.08;3.75;;;;;;;19.06;70.70;99083.31;1766947;80;21071;-75
2021/11/05 10:04:57;;;;;;;4.47;2.70;;;;;;;19.25;69.81;99080.39;1768449;80;20991;-74
2021/11/05 10:07:23;;;;;;;5.37;2.75;;;;;;;19.48;68.62;99078.99;1771249;80;22276;-75
2021/11/05 10:09:56;;;;;;;3.62;2.15;;;;;;;19.65;67.85;99073.13;1795428;78;20990;-76
2021/11/05 10:12:27;;;;;;;7.92;2.10;;;;;;;19.81;68.18;99068.60;1804817;79;20971;-76
2021/11/05 10:15:01;;;;;;;4.40;1.90;;;;;;;19.99;67.97;99069.22;1785884;79;21020;-77
2021/11/05 10:17:32;;;;;;;4.55;2.00;;;;;;;20.14;66.54;99066.08;1777202;79;21017;-76
2021/11/05 10:20:05;;;;;;;3.95;1.72;;;;;;;20.26;66.28;99058.67;1797393;78;20943;-76
2021/11/05 10:22:49;;;;;;;10.48;2.08;;;;;;;20.31;65.23;99064.12;1811070;78;21495;-75
2021/11/05 10:25:27;;;;;;;4.12;2.15;;;;;;;20.38;64.52;99074.18;1791136;78;21019;-74
2021/11/05 10:28:05;;;;;;;3.47;1.80;;;;;;;20.53;64.37;99076.75;1766228;80;20974;-76
2021/11/05 10:30:46;;;;;;;5.25;3.00;;;;;;;20.54;62.66;99071.37;1795899;79;20996;-76
2021/11/05 10:33:18;;;;;;;6.25;2.40;;;;;;;20.60;63.66;99068.83;1782751;79;21007;-75
2021/11/05 10:35:49;;;;;;;4.15;2.37;;;;;;;20.69;63.94;99083.20;1762848;80;21082;-75
2021/11/05 10:38:18;;;;;;;5.92;2.20;;;;;;;20.69;63.42;99076.16;1782235;79;21038;-79
2021/11/05 10:40:52;;;;;;;4.45;2.30;;;;;;;20.71;60.68;99061.50;1797014;78;21046;-77
2021/11/05 10:43:42;;;;;;;10.43;4.40;;;;;;;20.79;61.99;99060.05;1761357;80;21021;-78
2021/11/05 10:46:31;;;;;;;4.45;2.55;;;;;;;20.90;62.50;99059.78;1793626;78;21015;-78
2021/11/05 10:49:03;;;;;;;4.45;1.80;;;;;;;20.96;61.48;99064.17;1794729;78;21005;-78
2021/11/05 10:51:31;;;;;;;6.30;1.52;;;;;;;20.92;57.29;99055.24;1790694;78;21587;-77
2021/11/05 10:54:01;;;;;;;3.45;1.60;;;;;;;20.90;59.37;99051.86;1771920;80;20983;-77
2021/11/05 10:56:31;;;;;;;4.72;1.52;;;;;;;20.86;57.48;99064.43;1782240;80;21063;-78
2021/11/05 10:59:10;;;;;;;3.05;1.50;;;;;;;20.86;58.97;99058.66;1780696;80;20988;-78
2021/11/05 11:01:41;;;;;;;3.72;1.90;;;;;;;20.88;57.18;99060.37;1776444;80;21050;-77
2021/11/05 11:04:10;;;;;;;2.90;1.85;;;;;;;20.90;56.07;99050.53;1770500;80;21038;-76
2021/11/05 11:06:47;;;;;;;6.15;1.65;;;;;;;20.96;56.08;99056.72;1765679;80;21568;-77
2021/11/05 11:09:21;;;;;;;3.80;1.60;;;;;;;20.99;56.92;99063.09;1760404;80;21452;-79
2021/11/05 11:11:52;;;;;;;6.75;1.65;;;;;;;21.01;55.42;99062.55;1775934;80;20965;-76
2021/11/05 11:14:23;;;;;;;4.60;1.95;;;;;;;21.04;56.20;99054.39;1774902;80;21569;-77
2021/11/05 11:16:58;;;;;;;3.45;1.52;;;;;;;21.15;56.82;99048.35;1776344;80;21350;-79
2021/11/05 11:19:29;;;;;;;2.60;1.35;;;;;;;21.28;56.40;99049.69;1767622;79;21038;-79
2021/11/05 11:22:06;;;;;;;5.87;1.80;;;;;;;21.37;55.10;99036.66;1799197;79;20985;-77
2021/11/05 11:24:37;;;;;;;3.12;1.50;;;;;;;21.49;54.69;99036.30;1797878;79;21018;-78
2021/11/05 11:27:06;;;;;;;2.90;1.40;;;;;;;21.62;55.21;99042.88;1780769;79;21028;-79
2021/11/05 11:29:33;;;;;;;8.58;2.75;;;;;;;21.74;55.48;99053.05;1767653;79;21069;-79
2021/11/05 11:32:03;;;;;;;5.85;2.70;;;;;;;22.00;55.43;99041.90;1819616;78;20998;-79
2021/11/05 11:34:30;;;;;;;6.30;1.75;;;;;;;22.43;54.26;99039.59;1788891;78;21569;-79